Map

Track Data

SID SEASON NUMBER BASIN SUBBASIN NAME ISO_TIME NATURE LAT LON WMO_WIND WMO_PRES WMO_AGENCY TRACK_TYPE DIST2LAND LANDFALL IFLAG USA_AGENCY USA_ATCF_ID USA_LAT USA_LON USA_RECORD USA_STATUS USA_WIND USA_PRES USA_SSHS USA_R34_NE USA_R34_SE USA_R34_SW USA_R34_NW USA_R50_NE USA_R50_SE USA_R50_SW USA_R50_NW USA_R64_NE USA_R64_SE USA_R64_SW USA_R64_NW USA_POCI USA_ROCI USA_RMW USA_EYE TOKYO_LAT TOKYO_LON TOKYO_GRADE TOKYO_WIND TOKYO_PRES TOKYO_R50_DIR TOKYO_R50_LONG TOKYO_R50_SHORT TOKYO_R30_DIR TOKYO_R30_LONG TOKYO_R30_SHORT TOKYO_LAND CMA_LAT CMA_LON CMA_CAT CMA_WIND CMA_PRES HKO_LAT HKO_LON HKO_CAT HKO_WIND HKO_PRES NEWDELHI_LAT NEWDELHI_LON NEWDELHI_GRADE NEWDELHI_WIND NEWDELHI_PRES NEWDELHI_CI NEWDELHI_DP NEWDELHI_POCI REUNION_LAT REUNION_LON REUNION_TYPE REUNION_WIND REUNION_PRES REUNION_TNUM REUNION_CI REUNION_RMW REUNION_R34_NE REUNION_R34_SE REUNION_R34_SW REUNION_R34_NW REUNION_R50_NE REUNION_R50_SE REUNION_R50_SW REUNION_R50_NW REUNION_R64_NE REUNION_R64_SE REUNION_R64_SW REUNION_R64_NW BOM_LAT BOM_LON BOM_TYPE BOM_WIND BOM_PRES BOM_TNUM BOM_CI BOM_RMW BOM_R34_NE BOM_R34_SE BOM_R34_SW BOM_R34_NW BOM_R50_NE BOM_R50_SE BOM_R50_SW BOM_R50_NW BOM_R64_NE BOM_R64_SE BOM_R64_SW BOM_R64_NW BOM_ROCI BOM_POCI BOM_EYE BOM_POS_METHOD BOM_PRES_METHOD NADI_LAT NADI_LON NADI_CAT NADI_WIND NADI_PRES WELLINGTON_LAT WELLINGTON_LON WELLINGTON_WIND WELLINGTON_PRES DS824_LAT DS824_LON DS824_STAGE DS824_WIND DS824_PRES TD9636_LAT TD9636_LON TD9636_STAGE TD9636_WIND TD9636_PRES TD9635_LAT TD9635_LON TD9635_WIND TD9635_PRES TD9635_ROCI NEUMANN_LAT NEUMANN_LON NEUMANN_CLASS NEUMANN_WIND NEUMANN_PRES MLC_LAT MLC_LON MLC_CLASS MLC_WIND MLC_PRES USA_GUST BOM_GUST BOM_GUST_PER REUNION_GUST REUNION_GUST_PER USA_SEAHGT USA_SEARAD_NE USA_SEARAD_SE USA_SEARAD_SW USA_SEARAD_NW STORM_SPEED STORM_DIR
1990177N14257 1990 43 EP MM ELIDA 1990-06-26 06:00:00 TS 14.2000 -102.600 25 1009 hurdat_epa main 382 381 O_____________ hurdat_epa EP051990 14.2000 -102.600 TD 25 1009 -1 15 286
1990177N14257 1990 43 EP MM ELIDA 1990-06-26 09:00:00 TS 14.4071 -103.352 main 407 401 P_____________ EP051990 14.3829 -103.352 TD 27 1008 -1 15 287
1990177N14257 1990 43 EP MM ELIDA 1990-06-26 12:00:00 TS 14.6333 -104.100 30 1008 hurdat_epa main 412 404 O_____________ hurdat_epa EP051990 14.6000 -104.100 TD 30 1008 -1 15 289
1990177N14257 1990 43 EP MM ELIDA 1990-06-26 15:00:00 TS 14.8966 -104.830 main 404 401 P_____________ EP051990 14.8774 -104.830 TD 32 1007 -1 15 293
1990177N14257 1990 43 EP MM ELIDA 1990-06-26 18:00:00 TS 15.2000 -105.500 35 1006 hurdat_epa main 407 403 O_____________ hurdat_epa EP051990 15.2000 -105.500 TS 35 1006 0 14 299
1990177N14257 1990 43 EP MM ELIDA 1990-06-26 21:00:00 TS 15.5547 -106.080 main 409 408 P_____________ EP051990 15.5572 -106.080 TS 37 1004 0 13 303
1990177N14257 1990 43 EP MM ELIDA 1990-06-27 00:00:00 TS 15.9000 -106.600 40 1003 hurdat_epa main 415 410 O_____________ hurdat_epa EP051990 15.9000 -106.600 TS 40 1003 0 12 302
1990177N14257 1990 43 EP MM ELIDA 1990-06-27 03:00:00 TS 16.1649 -107.115 main 414 414 P_____________ EP051990 16.1649 -107.115 TS 42 1001 0 11 298
1990177N14257 1990 43 EP MM ELIDA 1990-06-27 06:00:00 TS 16.4000 -107.600 45 1000 hurdat_epa main 431 430 O_____________ hurdat_epa EP051990 16.4000 -107.600 TS 45 1000 0 10 298
1990177N14257 1990 43 EP MM ELIDA 1990-06-27 09:00:00 TS 16.6499 -108.058 main 453 445 P_____________ EP051990 16.6499 -108.058 TS 47 998 0 10 300
1990177N14257 1990 43 EP MM ELIDA 1990-06-27 12:00:00 TS 16.9000 -108.500 50 997 hurdat_epa main 460 460 O_____________ hurdat_epa EP051990 16.9000 -108.500 TS 50 997 0 10 300
1990177N14257 1990 43 EP MM ELIDA 1990-06-27 15:00:00 TS 17.1425 -108.965 main 486 480 P_____________ EP051990 17.1425 -108.965 TS 55 995 0 10 300
1990177N14257 1990 43 EP MM ELIDA 1990-06-27 18:00:00 TS 17.4000 -109.400 60 994 hurdat_epa main 503 503 O_____________ hurdat_epa EP051990 17.4000 -109.400 TS 60 994 0 9 306
1990177N14257 1990 43 EP MM ELIDA 1990-06-27 21:00:00 TS 17.6924 -109.765 main 520 514 P_____________ EP051990 17.6924 -109.765 TS 62 992 0 9 312
1990177N14257 1990 43 EP MM ELIDA 1990-06-28 00:00:00 TS 18.0000 -110.100 65 991 hurdat_epa main 532 516 O_____________ hurdat_epa EP051990 18.0000 -110.100 HU 65 991 1 9 314
1990177N14257 1990 43 EP MM ELIDA 1990-06-28 03:00:00 TS 18.3149 -110.450 main 517 486 P_____________ EP051990 18.3149 -110.450 HU 67 990 1 9 312
1990177N14257 1990 43 EP MM ELIDA 1990-06-28 06:00:00 TS 18.6000 -110.800 70 990 hurdat_epa main 488 470 O_____________ hurdat_epa EP051990 18.6000 -110.800 HU 70 990 1 8 308
1990177N14257 1990 43 EP MM ELIDA 1990-06-28 09:00:00 TS 18.8148 -111.135 main 472 459 P_____________ EP051990 18.8148 -111.135 HU 70 990 1 8 301
1990177N14257 1990 43 EP MM ELIDA 1990-06-28 12:00:00 TS 19.0000 -111.500 70 990 hurdat_epa main 463 453 O_____________ hurdat_epa EP051990 19.0000 -111.500 HU 70 990 1 8 297
1990177N14257 1990 43 EP MM ELIDA 1990-06-28 15:00:00 TS 19.1999 -111.928 main 458 457 P_____________ EP051990 19.1999 -111.928 HU 70 990 1 9 295
1990177N14257 1990 43 EP MM ELIDA 1990-06-28 18:00:00 TS 19.4000 -112.400 70 990 hurdat_epa main 463 460 O_____________ hurdat_epa EP051990 19.4000 -112.400 HU 70 990 1 10 294
1990177N14257 1990 43 EP MM ELIDA 1990-06-28 21:00:00 TS 19.5997 -112.870 main 475 473 P_____________ EP051990 19.5997 -112.870 HU 70 990 1 10 293
1990177N14257 1990 43 EP MM ELIDA 1990-06-29 00:00:00 TS 19.8000 -113.400 70 990 hurdat_epa main 494 494 O_____________ hurdat_epa EP051990 19.8000 -113.400 HU 70 990 1 12 290
1990177N14257 1990 43 EP MM ELIDA 1990-06-29 03:00:00 TS 19.9999 -114.020 main 525 525 P_____________ EP051990 19.9999 -114.020 HU 67 990 1 13 288
1990177N14257 1990 43 EP MM ELIDA 1990-06-29 06:00:00 TS 20.2000 -114.700 65 991 hurdat_epa main 565 565 O_____________ hurdat_epa EP051990 20.2000 -114.700 HU 65 991 1 13 288
1990177N14257 1990 43 EP MM ELIDA 1990-06-29 09:00:00 TS 20.4071 -115.378 main 588 584 P_____________ EP051990 20.4071 -115.378 HU 62 991 0 14 287
1990177N14257 1990 43 EP MM ELIDA 1990-06-29 12:00:00 TS 20.6000 -116.100 60 992 hurdat_epa main 615 615 O_____________ hurdat_epa EP051990 20.6000 -116.100 TS 60 992 0 15 284
1990177N14257 1990 43 EP MM ELIDA 1990-06-29 15:00:00 TS 20.7649 -116.893 main 657 657 P_____________ EP051990 20.7649 -116.893 TS 57 993 0 15 281
1990177N14257 1990 43 EP MM ELIDA 1990-06-29 18:00:00 TS 20.9000 -117.700 55 994 hurdat_epa main 712 712 O_____________ hurdat_epa EP051990 20.9000 -117.700 TS 55 994 0 15 280
1990177N14257 1990 43 EP MM ELIDA 1990-06-29 21:00:00 TS 21.0222 -118.465 main 772 772 P_____________ EP051990 21.0222 -118.465 TS 52 995 0 14 278
1990177N14257 1990 43 EP MM ELIDA 1990-06-30 00:00:00 TS 21.1000 -119.200 50 997 hurdat_epa main 827 827 O_____________ hurdat_epa EP051990 21.1000 -119.200 TS 50 997 0 14 274
1990177N14257 1990 43 EP MM ELIDA 1990-06-30 03:00:00 TS 21.1146 -119.908 main 880 880 P_____________ EP051990 21.1146 -119.908 TS 47 998 0 13 270
1990177N14257 1990 43 EP MM ELIDA 1990-06-30 06:00:00 TS 21.1000 -120.600 45 1000 hurdat_epa main 926 926 O_____________ hurdat_epa EP051990 21.1000 -120.600 TS 45 1000 0 13 269
1990177N14257 1990 43 EP MM ELIDA 1990-06-30 09:00:00 TS 21.0997 -121.300 main 974 974 P_____________ EP051990 21.0997 -121.300 TS 42 1002 0 13 270
1990177N14257 1990 43 EP MM ELIDA 1990-06-30 12:00:00 TS 21.1000 -122.000 40 1005 hurdat_epa main 1022 1022 O_____________ hurdat_epa EP051990 21.1000 -122.000 TS 40 1005 0 13 270
1990177N14257 1990 43 EP MM ELIDA 1990-06-30 15:00:00 TS 21.1073 -122.707 main 1072 1072 P_____________ EP051990 21.1073 -122.707 TS 37 1006 0 13 270
1990177N14257 1990 43 EP MM ELIDA 1990-06-30 18:00:00 TS 21.1000 -123.400 35 1007 hurdat_epa main 1124 1124 O_____________ hurdat_epa EP051990 21.1000 -123.400 TS 35 1007 0 13 268
1990177N14257 1990 43 EP MM ELIDA 1990-06-30 21:00:00 TS 21.0574 -124.080 main 1179 1179 P_____________ EP051990 21.0574 -124.080 TS 32 1008 -1 12 265
1990177N14257 1990 43 EP MM ELIDA 1990-07-01 00:00:00 TS 21.0000 -124.700 30 1010 hurdat_epa main 1234 1234 O_____________ hurdat_epa EP051990 21.0000 -124.700 TD 30 1010 -1 11 264
1990177N14257 1990 43 EP MM ELIDA 1990-07-01 03:00:00 TS 20.9447 -125.230 main 1281 1281 P_____________ EP051990 20.9422 -125.230 TD 30 1010 -1 9 264
1990177N14257 1990 43 EP MM ELIDA 1990-07-01 06:00:00 TS 20.9000 -125.700 30 1011 hurdat_epa main 1322 1322 O_____________ hurdat_epa EP051990 20.9000 -125.700 TD 30 1011 -1 9 265
1990177N14257 1990 43 EP MM ELIDA 1990-07-01 09:00:00 TS 20.8732 -126.157 main 1364 1364 P_____________ EP051990 20.8923 -126.157 TD 30 1011 -1 8 268
1990177N14257 1990 43 EP MM ELIDA 1990-07-01 12:00:00 TS 20.8667 -126.600 30 1012 hurdat_epa main 1397 1397 O_____________ hurdat_epa EP051990 20.9000 -126.600 TD 30 1012 -1 8 271
1990177N14257 1990 43 EP MM ELIDA 1990-07-01 15:00:00 TS 20.8807 -127.042 main 1432 1432 P_____________ EP051990 20.8998 -127.043 TD 27 1012 -1 8 272
1990177N14257 1990 43 EP MM ELIDA 1990-07-01 18:00:00 TS 20.9000 -127.500 25 1012 hurdat_epa main 1475 1475 O_____________ hurdat_epa EP051990 20.9000 -127.500 TD 25 1012 -1 9 271
1990177N14257 1990 43 EP MM ELIDA 1990-07-01 21:00:00 TS 20.8949 -127.993 main 1518 1518 P_____________ EP051990 20.8924 -127.993 TD 25 1012 -1 9 270
1990177N14257 1990 43 EP MM ELIDA 1990-07-02 00:00:00 TS 20.9000 -128.500 25 1012 hurdat_epa main 1562 1562 O_____________ hurdat_epa EP051990 20.9000 -128.500 TD 25 1012 -1 10 274
1990177N14257 1990 43 EP MM ELIDA 1990-07-02 03:00:00 TS 20.9574 -129.007 main 1601 1601 P_____________ EP051990 20.9574 -129.007 TD 25 1012 -1 9 276
1990177N14257 1990 43 EP MM ELIDA 1990-07-02 06:00:00 TS 21.0000 -129.500 25 1012 hurdat_epa main 1646 1646 O_____________ hurdat_epa EP051990 21.0000 -129.500 TD 25 1012 -1 9 271
1990177N14257 1990 43 EP MM ELIDA 1990-07-02 09:00:00 TS 20.9727 -129.960 main 1691 1691 P_____________ EP051990 20.9727 -129.960 TD 25 1012 -1 8 263
1990177N14257 1990 43 EP MM ELIDA 1990-07-02 12:00:00 TS 20.9000 -130.400 25 1012 hurdat_epa main 1732 O_____________ hurdat_epa EP051990 20.9000 -130.400 TD 25 1012 -1 8 260

About IBTrACS Database

This database is a web-friendly format of International Best Track Archive for Climate Stewardship (IBTrACS), a global best track data archive curated by NOAA dating back to 1842.

Updated: 2021-12-03